^^
Meteo Knjazevac Station Historical Data
Daily Summary for January 7, 2021 Units:  Metric    English   Both
Daily Weekly Monthly Yearly Custom
  High: Low: Average:
Temperature: 16.4 °C 12.1 °C 13.7 °C
Dew Point: 12.3 °C 10.4 °C 11.2 °C
Humidity: 91% 77% 85%
Wind Speed: 3.2km/h 0km/h 1.3km/h
Wind Gust: 8km/h - -
Wind- - West
Pressure: 1015.8 hPa 1014.1 hPa -
Precipitation: 0 mm    
Historical Graphs
 
 
Tabular Data for January 7, 2021
Time Temperature Dew Point Pressure Wind Wind Speed Wind Gust Humidity Rainfall Rate (Hourly) solar Conditions
00:00 16.4 °C 12.3 °C 1014.1 hPa West 1.6 km/h 3.2 km/h 77% 0 mm 0 W/m2
00:10 16.3 °C 12.3 °C 1014.1 hPa Calm   3.2 km/h 77% 0 mm 0 W/m2
00:20 16.2 °C 12.3 °C 1014.1 hPa SSE 1.6 km/h 3.2 km/h 78% 0 mm 0 W/m2
00:30 15.8 °C 11.9 °C 1014.1 hPa WSW 1.6 km/h 3.2 km/h 78% 0 mm 0 W/m2
00:40 15.6 °C 11.9 °C 1014.1 hPa Calm   4.8 km/h 79% 0 mm 0 W/m2
00:50 15.6 °C 11.9 °C 1014.1 hPa Calm   3.2 km/h 79% 0 mm 0 W/m2
01:00 15.5 °C 12.1 °C 1014.1 hPa NNE 3.2 km/h 4.8 km/h 80% 0 mm 0 W/m2
01:10 15.3 °C 11.9 °C 1014.4 hPa North 3.2 km/h 4.8 km/h 80% 0 mm 0 W/m2
01:20 15.2 °C 11.8 °C 1014.4 hPa Calm   4.8 km/h 80% 0 mm 0 W/m2
01:30 15 °C 11.7 °C 1014.4 hPa West 1.6 km/h 4.8 km/h 81% 0 mm 0 W/m2
01:40 14.9 °C 11.7 °C 1014.4 hPa Calm   3.2 km/h 81% 0 mm 0 W/m2
01:50 14.9 °C 11.8 °C 1014.4 hPa NNW 1.6 km/h 3.2 km/h 82% 0 mm 0 W/m2
02:00 14.8 °C 11.6 °C 1014.8 hPa Calm   3.2 km/h 81% 0 mm 0 W/m2
02:10 14.7 °C 11.8 °C 1014.4 hPa Calm   3.2 km/h 83% 0 mm 0 W/m2
02:20 14.4 °C 11.6 °C 1014.8 hPa Calm   3.2 km/h 83% 0 mm 0 W/m2
02:30 14.2 °C 11.3 °C 1014.4 hPa NW 1.6 km/h 3.2 km/h 83% 0 mm 0 W/m2
02:40 13.9 °C 11.2 °C 1014.4 hPa NW 1.6 km/h 3.2 km/h 84% 0 mm 0 W/m2
02:50 13.7 °C 11.2 °C 1014.4 hPa West 3.2 km/h 4.8 km/h 85% 0 mm 0 W/m2
03:00 13.4 °C 10.9 °C 1014.8 hPa West 3.2 km/h 6.4 km/h 85% 0 mm 0 W/m2
03:10 13.3 °C 11 °C 1014.8 hPa WSW 3.2 km/h 4.8 km/h 86% 0 mm 0 W/m2
03:20 13.2 °C 10.9 °C 1014.8 hPa WNW 1.6 km/h 4.8 km/h 86% 0 mm 0 W/m2
03:30 13.1 °C 11 °C 1014.8 hPa WNW 3.2 km/h 4.8 km/h 87% 0 mm 0 W/m2
03:40 13.1 °C 11.2 °C 1015.1 hPa Calm   4.8 km/h 88% 0 mm 0 W/m2
03:50 13.2 °C 11.2 °C 1015.1 hPa NW 1.6 km/h 3.2 km/h 88% 0 mm 0 W/m2
04:00 13 °C 11.1 °C 1014.8 hPa NW 1.6 km/h 3.2 km/h 88% 0 mm 0 W/m2
04:10 12.9 °C 10.9 °C 1015.1 hPa Calm   6.4 km/h 88% 0 mm 0 W/m2
04:20 12.8 °C 10.8 °C 1015.1 hPa West 1.6 km/h 3.2 km/h 88% 0 mm 0 W/m2
04:30 12.7 °C 10.8 °C 1015.1 hPa WNW 1.6 km/h 3.2 km/h 88% 0 mm 0 W/m2
04:40 12.7 °C 10.8 °C 1015.1 hPa NW 1.6 km/h 4.8 km/h 88% 0 mm 0 W/m2
04:50 12.6 °C 10.7 °C 1015.1 hPa WNW 1.6 km/h 3.2 km/h 88% 0 mm 0 W/m2
05:00 12.5 °C 10.7 °C 1015.1 hPa Calm   3.2 km/h 89% 0 mm 0 W/m2
05:10 12.4 °C 10.6 °C 1015.1 hPa Calm   3.2 km/h 89% 0 mm 0 W/m2
05:20 12.3 °C 10.6 °C 1015.5 hPa Calm   3.2 km/h 89% 0 mm 0 W/m2
05:30 12.2 °C 10.4 °C 1015.5 hPa WNW 1.6 km/h 8 km/h 89% 0 mm 5 W/m2
05:40 12.1 °C 10.5 °C 1015.5 hPa WNW 1.6 km/h 4.8 km/h 90% 0 mm 12 W/m2
05:50 12.1 °C 10.5 °C 1015.5 hPa Calm   3.2 km/h 90% 0 mm 19 W/m2
06:00 12.1 °C 10.5 °C 1015.5 hPa NW 1.6 km/h 4.8 km/h 90% 0 mm 27 W/m2
06:10 12.1 °C 10.5 °C 1015.8 hPa Calm   3.2 km/h 90% 0 mm 39 W/m2
06:20 12.2 °C 10.6 °C 1015.8 hPa NNW 1.6 km/h 3.2 km/h 90% 0 mm 41 W/m2
06:30 12.3 °C 10.7 °C 1015.8 hPa Calm   1.6 km/h 90% 0 mm 98 W/m2
06:40 12.3 °C 10.9 °C 1015.8 hPa West 3.2 km/h 4.8 km/h 91% 0 mm 123 W/m2
06:50 12.6 °C 11.2 °C 1015.8 hPa WNW 1.6 km/h 4.8 km/h 91% 0 mm 151 W/m2
07:00 12.9 °C 11.4 °C 1015.8 hPa WNW 1.6 km/h 4.8 km/h 91% 0 mm 185 W/m2
Knjazevac, Serbia
Compliments of Weather Underground - 2 mb